sensor_id;sensor_type;location;lat;lon;timestamp;temperature;humidity
43015;DHT22;28637;50.554;7.032;2022-11-15T00:04:54;11.80;99.90
43015;DHT22;28637;50.554;7.032;2022-11-15T00:09:55;11.80;99.90
43015;DHT22;28637;50.554;7.032;2022-11-15T00:14:55;11.80;99.90
43015;DHT22;28637;50.554;7.032;2022-11-15T00:19:56;11.90;99.90
43015;DHT22;28637;50.554;7.032;2022-11-15T00:24:57;11.90;99.90
43015;DHT22;28637;50.554;7.032;2022-11-15T00:29:57;12.00;99.90
43015;DHT22;28637;50.554;7.032;2022-11-15T00:34:58;12.00;99.90
43015;DHT22;28637;50.554;7.032;2022-11-15T00:39:59;12.00;99.90
43015;DHT22;28637;50.554;7.032;2022-11-15T00:44:59;12.10;99.90
43015;DHT22;28637;50.554;7.032;2022-11-15T00:50:00;12.20;99.90
43015;DHT22;28637;50.554;7.032;2022-11-15T00:55:01;12.10;99.90
43015;DHT22;28637;50.554;7.032;2022-11-15T01:00:01;12.20;99.90
43015;DHT22;28637;50.554;7.032;2022-11-15T01:05:02;12.20;99.90
43015;DHT22;28637;50.554;7.032;2022-11-15T01:10:04;12.30;99.90
43015;DHT22;28637;50.554;7.032;2022-11-15T01:15:05;12.30;99.90
43015;DHT22;28637;50.554;7.032;2022-11-15T01:20:06;12.40;99.90
43015;DHT22;28637;50.554;7.032;2022-11-15T01:25:07;12.30;99.90
43015;DHT22;28637;50.554;7.032;2022-11-15T01:30:08;12.30;99.90
43015;DHT22;28637;50.554;7.032;2022-11-15T01:35:09;12.30;99.90
43015;DHT22;28637;50.554;7.032;2022-11-15T01:40:10;12.30;99.90
43015;DHT22;28637;50.554;7.032;2022-11-15T01:45:15;12.30;99.90
43015;DHT22;28637;50.554;7.032;2022-11-15T01:50:19;12.40;99.90
43015;DHT22;28637;50.554;7.032;2022-11-15T01:55:25;12.40;99.90
43015;DHT22;28637;50.554;7.032;2022-11-15T02:00:27;12.40;99.90
43015;DHT22;28637;50.554;7.032;2022-11-15T02:05:29;12.40;99.90
43015;DHT22;28637;50.554;7.032;2022-11-15T02:10:30;12.40;99.90
43015;DHT22;28637;50.554;7.032;2022-11-15T02:15:40;12.40;99.90
43015;DHT22;28637;50.554;7.032;2022-11-15T02:20:46;12.40;99.90
43015;DHT22;28637;50.554;7.032;2022-11-15T02:31:51;12.50;99.90
43015;DHT22;28637;50.554;7.032;2022-11-15T02:42:14;12.60;99.90
43015;DHT22;28637;50.554;7.032;2022-11-15T02:47:42;12.60;99.90
43015;DHT22;28637;50.554;7.032;2022-11-15T02:52:49;12.60;99.90
43015;DHT22;28637;50.554;7.032;2022-11-15T02:58:00;12.50;99.90
43015;DHT22;28637;50.554;7.032;2022-11-15T03:08:57;12.50;99.90
43015;DHT22;28637;50.554;7.032;2022-11-15T03:14:25;12.50;99.90
43015;DHT22;28637;50.554;7.032;2022-11-15T03:19:43;12.50;99.90
43015;DHT22;28637;50.554;7.032;2022-11-15T03:24:47;12.50;99.90
43015;DHT22;28637;50.554;7.032;2022-11-15T03:29:55;12.40;99.90
43015;DHT22;28637;50.554;7.032;2022-11-15T03:35:05;12.30;99.90
43015;DHT22;28637;50.554;7.032;2022-11-15T03:40:07;12.30;99.90
43015;DHT22;28637;50.554;7.032;2022-11-15T03:45:26;12.30;99.90
43015;DHT22;28637;50.554;7.032;2022-11-15T03:50:29;12.30;99.90
43015;DHT22;28637;50.554;7.032;2022-11-15T03:55:31;12.30;99.90
43015;DHT22;28637;50.554;7.032;2022-11-15T04:00:32;12.20;99.90
43015;DHT22;28637;50.554;7.032;2022-11-15T04:05:33;12.20;99.90
43015;DHT22;28637;50.554;7.032;2022-11-15T04:10:34;12.10;99.90
43015;DHT22;28637;50.554;7.032;2022-11-15T04:15:35;12.20;99.90
43015;DHT22;28637;50.554;7.032;2022-11-15T04:20:36;12.20;99.90
43015;DHT22;28637;50.554;7.032;2022-11-15T04:25:56;12.20;99.90
43015;DHT22;28637;50.554;7.032;2022-11-15T04:30:58;12.30;99.90
43015;DHT22;28637;50.554;7.032;2022-11-15T04:35:59;12.30;99.90
43015;DHT22;28637;50.554;7.032;2022-11-15T04:41:18;12.20;99.90
43015;DHT22;28637;50.554;7.032;2022-11-15T04:46:19;12.20;99.90
43015;DHT22;28637;50.554;7.032;2022-11-15T04:51:20;12.10;99.90
43015;DHT22;28637;50.554;7.032;2022-11-15T04:56:20;12.10;99.90
43015;DHT22;28637;50.554;7.032;2022-11-15T05:01:21;12.10;99.90
43015;DHT22;28637;50.554;7.032;2022-11-15T05:06:22;12.10;99.90
43015;DHT22;28637;50.554;7.032;2022-11-15T05:11:23;12.00;99.90
43015;DHT22;28637;50.554;7.032;2022-11-15T05:16:24;11.80;99.90
43015;DHT22;28637;50.554;7.032;2022-11-15T05:21:25;11.70;99.90
43015;DHT22;28637;50.554;7.032;2022-11-15T05:26:26;11.60;99.90
43015;DHT22;28637;50.554;7.032;2022-11-15T05:31:27;11.60;99.90
43015;DHT22;28637;50.554;7.032;2022-11-15T05:36:37;11.50;99.90
43015;DHT22;28637;50.554;7.032;2022-11-15T05:41:45;11.40;99.90
43015;DHT22;28637;50.554;7.032;2022-11-15T05:46:48;11.40;99.90
43015;DHT22;28637;50.554;7.032;2022-11-15T05:51:50;11.40;99.90
43015;DHT22;28637;50.554;7.032;2022-11-15T05:56:52;11.30;99.90
43015;DHT22;28637;50.554;7.032;2022-11-15T06:01:52;11.20;99.90
43015;DHT22;28637;50.554;7.032;2022-11-15T06:06:53;11.20;99.90
43015;DHT22;28637;50.554;7.032;2022-11-15T06:11:54;11.00;99.90
43015;DHT22;28637;50.554;7.032;2022-11-15T06:16:54;10.90;99.90
43015;DHT22;28637;50.554;7.032;2022-11-15T06:21:55;10.90;99.90
43015;DHT22;28637;50.554;7.032;2022-11-15T06:26:56;10.90;99.90
43015;DHT22;28637;50.554;7.032;2022-11-15T06:31:57;10.90;99.90
43015;DHT22;28637;50.554;7.032;2022-11-15T06:36:58;10.80;99.90
43015;DHT22;28637;50.554;7.032;2022-11-15T06:41:59;10.70;99.90
43015;DHT22;28637;50.554;7.032;2022-11-15T06:46:59;10.60;99.90
43015;DHT22;28637;50.554;7.032;2022-11-15T06:52:00;10.50;99.90
43015;DHT22;28637;50.554;7.032;2022-11-15T06:57:01;10.40;99.90
43015;DHT22;28637;50.554;7.032;2022-11-15T07:02:02;10.40;99.90
43015;DHT22;28637;50.554;7.032;2022-11-15T07:07:02;10.30;99.90
43015;DHT22;28637;50.554;7.032;2022-11-15T07:12:03;10.20;99.90
43015;DHT22;28637;50.554;7.032;2022-11-15T07:17:05;10.20;99.90
43015;DHT22;28637;50.554;7.032;2022-11-15T07:22:05;10.30;99.90
43015;DHT22;28637;50.554;7.032;2022-11-15T07:27:06;10.30;99.90
43015;DHT22;28637;50.554;7.032;2022-11-15T07:32:07;10.40;99.90
43015;DHT22;28637;50.554;7.032;2022-11-15T07:37:08;10.40;99.90
43015;DHT22;28637;50.554;7.032;2022-11-15T07:42:09;10.50;99.90
43015;DHT22;28637;50.554;7.032;2022-11-15T07:47:28;10.50;99.90
43015;DHT22;28637;50.554;7.032;2022-11-15T07:52:29;10.60;99.90
43015;DHT22;28637;50.554;7.032;2022-11-15T07:57:30;10.60;99.90
43015;DHT22;28637;50.554;7.032;2022-11-15T08:02:31;10.70;99.90
43015;DHT22;28637;50.554;7.032;2022-11-15T08:07:33;10.80;99.90
43015;DHT22;28637;50.554;7.032;2022-11-15T08:12:33;10.80;99.90
43015;DHT22;28637;50.554;7.032;2022-11-15T08:17:34;10.90;99.90
43015;DHT22;28637;50.554;7.032;2022-11-15T08:22:35;10.90;99.90
43015;DHT22;28637;50.554;7.032;2022-11-15T08:27:37;10.90;99.90
43015;DHT22;28637;50.554;7.032;2022-11-15T08:32:37;10.90;99.90
43015;DHT22;28637;50.554;7.032;2022-11-15T08:37:38;11.00;99.90
43015;DHT22;28637;50.554;7.032;2022-11-15T08:42:39;11.00;99.90
43015;DHT22;28637;50.554;7.032;2022-11-15T08:47:40;11.10;99.90
43015;DHT22;28637;50.554;7.032;2022-11-15T08:52:40;11.10;99.90
43015;DHT22;28637;50.554;7.032;2022-11-15T08:57:41;11.20;99.90
43015;DHT22;28637;50.554;7.032;2022-11-15T09:02:42;11.30;99.90
43015;DHT22;28637;50.554;7.032;2022-11-15T09:07:42;11.30;99.90
43015;DHT22;28637;50.554;7.032;2022-11-15T09:12:43;11.40;99.90
43015;DHT22;28637;50.554;7.032;2022-11-15T09:17:44;11.50;99.90
43015;DHT22;28637;50.554;7.032;2022-11-15T09:22:45;11.60;99.90
43015;DHT22;28637;50.554;7.032;2022-11-15T09:27:46;11.80;99.90
43015;DHT22;28637;50.554;7.032;2022-11-15T09:32:46;12.10;99.90
43015;DHT22;28637;50.554;7.032;2022-11-15T09:37:47;12.10;99.90
43015;DHT22;28637;50.554;7.032;2022-11-15T09:53:27;12.60;99.90
43015;DHT22;28637;50.554;7.032;2022-11-15T09:58:40;12.50;99.90
43015;DHT22;28637;50.554;7.032;2022-11-15T10:03:43;12.80;99.90
43015;DHT22;28637;50.554;7.032;2022-11-15T10:08:59;12.90;99.90
43015;DHT22;28637;50.554;7.032;2022-11-15T10:14:05;13.10;99.90
43015;DHT22;28637;50.554;7.032;2022-11-15T10:24:27;13.40;99.90
43015;DHT22;28637;50.554;7.032;2022-11-15T10:29:31;13.80;99.90
43015;DHT22;28637;50.554;7.032;2022-11-15T10:34:35;14.00;99.90
43015;DHT22;28637;50.554;7.032;2022-11-15T10:39:36;14.10;99.90
43015;DHT22;28637;50.554;7.032;2022-11-15T10:44:42;13.90;99.90
43015;DHT22;28637;50.554;7.032;2022-11-15T10:49:57;14.10;99.90
43015;DHT22;28637;50.554;7.032;2022-11-15T10:55:12;14.30;99.90
43015;DHT22;28637;50.554;7.032;2022-11-15T11:05:33;14.50;99.90
43015;DHT22;28637;50.554;7.032;2022-11-15T11:10:34;15.00;99.90
43015;DHT22;28637;50.554;7.032;2022-11-15T11:15:35;15.70;99.90
43015;DHT22;28637;50.554;7.032;2022-11-15T11:21:04;15.80;99.90
43015;DHT22;28637;50.554;7.032;2022-11-15T11:31:46;16.40;99.90
43015;DHT22;28637;50.554;7.032;2022-11-15T11:47:28;15.90;99.90
43015;DHT22;28637;50.554;7.032;2022-11-15T11:52:44;15.60;99.90
43015;DHT22;28637;50.554;7.032;2022-11-15T11:58:03;14.90;99.90
43015;DHT22;28637;50.554;7.032;2022-11-15T12:13:31;14.30;99.90
43015;DHT22;28637;50.554;7.032;2022-11-15T12:18:37;14.30;99.90
43015;DHT22;28637;50.554;7.032;2022-11-15T12:23:44;14.20;99.90
43015;DHT22;28637;50.554;7.032;2022-11-15T12:29:02;14.30;99.90
43015;DHT22;28637;50.554;7.032;2022-11-15T12:40:05;14.30;99.90
43015;DHT22;28637;50.554;7.032;2022-11-15T12:45:31;14.40;99.90
43015;DHT22;28637;50.554;7.032;2022-11-15T13:01:07;14.50;99.90
43015;DHT22;28637;50.554;7.032;2022-11-15T13:06:09;14.60;99.90
43015;DHT22;28637;50.554;7.032;2022-11-15T13:11:50;14.70;99.90
43015;DHT22;28637;50.554;7.032;2022-11-15T13:16:58;14.80;99.90
43015;DHT22;28637;50.554;7.032;2022-11-15T13:21:59;15.20;99.90
43015;DHT22;28637;50.554;7.032;2022-11-15T13:27:19;15.50;99.90
43015;DHT22;28637;50.554;7.032;2022-11-15T13:32:21;15.60;99.90
43015;DHT22;28637;50.554;7.032;2022-11-15T13:42:22;16.10;99.90
43015;DHT22;28637;50.554;7.032;2022-11-15T13:47:29;17.00;99.90
43015;DHT22;28637;50.554;7.032;2022-11-15T13:52:33;16.80;99.90
43015;DHT22;28637;50.554;7.032;2022-11-15T13:57:45;16.20;99.90
43015;DHT22;28637;50.554;7.032;2022-11-15T14:02:52;15.70;99.90
43015;DHT22;28637;50.554;7.032;2022-11-15T14:08:13;15.50;99.90
43015;DHT22;28637;50.554;7.032;2022-11-15T14:13:29;15.00;99.90
43015;DHT22;28637;50.554;7.032;2022-11-15T14:18:51;14.80;99.90
43015;DHT22;28637;50.554;7.032;2022-11-15T14:23:51;14.50;99.90
43015;DHT22;28637;50.554;7.032;2022-11-15T14:28:52;14.40;99.90
43015;DHT22;28637;50.554;7.032;2022-11-15T14:33:53;14.40;99.90
43015;DHT22;28637;50.554;7.032;2022-11-15T14:38:54;14.50;99.90
43015;DHT22;28637;50.554;7.032;2022-11-15T14:43:55;14.50;99.90
43015;DHT22;28637;50.554;7.032;2022-11-15T14:48:56;14.40;99.90
43015;DHT22;28637;50.554;7.032;2022-11-15T14:53:56;14.30;99.90
43015;DHT22;28637;50.554;7.032;2022-11-15T14:58:57;14.30;99.90
43015;DHT22;28637;50.554;7.032;2022-11-15T15:03:59;14.30;99.90
43015;DHT22;28637;50.554;7.032;2022-11-15T15:08:59;14.20;99.90
43015;DHT22;28637;50.554;7.032;2022-11-15T15:14:00;14.10;99.90
43015;DHT22;28637;50.554;7.032;2022-11-15T15:19:02;14.00;99.90
43015;DHT22;28637;50.554;7.032;2022-11-15T15:24:03;13.90;99.90
43015;DHT22;28637;50.554;7.032;2022-11-15T15:29:04;13.80;99.90
43015;DHT22;28637;50.554;7.032;2022-11-15T15:34:05;13.70;99.90
43015;DHT22;28637;50.554;7.032;2022-11-15T15:39:09;13.70;99.90
43015;DHT22;28637;50.554;7.032;2022-11-15T15:44:12;13.80;99.90
43015;DHT22;28637;50.554;7.032;2022-11-15T15:49:13;14.00;99.90
43015;DHT22;28637;50.554;7.032;2022-11-15T15:54:13;14.20;99.90
43015;DHT22;28637;50.554;7.032;2022-11-15T15:59:14;14.00;99.90
43015;DHT22;28637;50.554;7.032;2022-11-15T16:04:15;13.90;99.90
43015;DHT22;28637;50.554;7.032;2022-11-15T16:09:18;13.80;99.90
43015;DHT22;28637;50.554;7.032;2022-11-15T16:14:39;13.70;99.90
43015;DHT22;28637;50.554;7.032;2022-11-15T16:19:40;13.60;99.90
43015;DHT22;28637;50.554;7.032;2022-11-15T16:24:40;13.60;99.90
43015;DHT22;28637;50.554;7.032;2022-11-15T16:29:41;13.50;99.90
43015;DHT22;28637;50.554;7.032;2022-11-15T16:34:42;13.40;99.90
43015;DHT22;28637;50.554;7.032;2022-11-15T16:39:42;13.30;99.90
43015;DHT22;28637;50.554;7.032;2022-11-15T16:44:43;13.30;99.90
43015;DHT22;28637;50.554;7.032;2022-11-15T16:49:44;13.30;99.90
43015;DHT22;28637;50.554;7.032;2022-11-15T16:54:45;13.30;99.90
43015;DHT22;28637;50.554;7.032;2022-11-15T16:59:45;13.20;99.90
43015;DHT22;28637;50.554;7.032;2022-11-15T17:04:46;13.20;99.90
43015;DHT22;28637;50.554;7.032;2022-11-15T17:09:47;13.20;99.90
43015;DHT22;28637;50.554;7.032;2022-11-15T17:14:47;13.20;99.90
43015;DHT22;28637;50.554;7.032;2022-11-15T17:19:48;13.20;99.90
43015;DHT22;28637;50.554;7.032;2022-11-15T17:24:49;13.20;99.90
43015;DHT22;28637;50.554;7.032;2022-11-15T17:29:50;13.20;99.90
43015;DHT22;28637;50.554;7.032;2022-11-15T17:34:50;13.20;99.90
43015;DHT22;28637;50.554;7.032;2022-11-15T17:39:51;13.20;99.90
43015;DHT22;28637;50.554;7.032;2022-11-15T17:44:52;13.20;99.90
43015;DHT22;28637;50.554;7.032;2022-11-15T17:49:53;13.20;99.90
43015;DHT22;28637;50.554;7.032;2022-11-15T17:54:53;13.20;99.90
43015;DHT22;28637;50.554;7.032;2022-11-15T17:59:54;13.20;99.90
43015;DHT22;28637;50.554;7.032;2022-11-15T18:04:55;13.20;99.90
43015;DHT22;28637;50.554;7.032;2022-11-15T18:09:55;13.30;99.90
43015;DHT22;28637;50.554;7.032;2022-11-15T18:14:56;13.30;99.90
43015;DHT22;28637;50.554;7.032;2022-11-15T18:19:57;13.30;99.90
43015;DHT22;28637;50.554;7.032;2022-11-15T18:24:58;13.20;99.90
43015;DHT22;28637;50.554;7.032;2022-11-15T18:29:59;13.20;99.90
43015;DHT22;28637;50.554;7.032;2022-11-15T18:34:59;13.10;99.90
43015;DHT22;28637;50.554;7.032;2022-11-15T18:40:00;13.10;99.90
43015;DHT22;28637;50.554;7.032;2022-11-15T18:45:01;13.10;99.90
43015;DHT22;28637;50.554;7.032;2022-11-15T18:50:02;13.10;99.90
43015;DHT22;28637;50.554;7.032;2022-11-15T18:55:03;13.10;99.90
43015;DHT22;28637;50.554;7.032;2022-11-15T19:00:04;13.10;99.90
43015;DHT22;28637;50.554;7.032;2022-11-15T19:05:05;13.10;99.90
43015;DHT22;28637;50.554;7.032;2022-11-15T19:10:08;13.10;99.90
43015;DHT22;28637;50.554;7.032;2022-11-15T19:15:11;13.10;99.90
43015;DHT22;28637;50.554;7.032;2022-11-15T19:20:12;13.20;99.90
43015;DHT22;28637;50.554;7.032;2022-11-15T19:25:12;13.30;99.90
43015;DHT22;28637;50.554;7.032;2022-11-15T19:30:13;13.30;99.90
43015;DHT22;28637;50.554;7.032;2022-11-15T19:35:14;13.40;99.90
43015;DHT22;28637;50.554;7.032;2022-11-15T19:40:15;13.30;99.90
43015;DHT22;28637;50.554;7.032;2022-11-15T19:45:16;13.30;99.90
43015;DHT22;28637;50.554;7.032;2022-11-15T19:50:17;13.20;99.90
43015;DHT22;28637;50.554;7.032;2022-11-15T19:55:17;13.30;99.90
43015;DHT22;28637;50.554;7.032;2022-11-15T20:00:18;13.30;99.90
43015;DHT22;28637;50.554;7.032;2022-11-15T20:05:20;13.30;99.90
43015;DHT22;28637;50.554;7.032;2022-11-15T20:10:21;13.30;99.90
43015;DHT22;28637;50.554;7.032;2022-11-15T20:15:22;13.20;99.90
43015;DHT22;28637;50.554;7.032;2022-11-15T20:20:23;13.30;99.90
43015;DHT22;28637;50.554;7.032;2022-11-15T20:25:23;13.20;99.90
43015;DHT22;28637;50.554;7.032;2022-11-15T20:30:24;13.10;99.90
43015;DHT22;28637;50.554;7.032;2022-11-15T20:35:25;13.00;99.90
43015;DHT22;28637;50.554;7.032;2022-11-15T20:40:26;13.00;99.90
43015;DHT22;28637;50.554;7.032;2022-11-15T20:45:26;13.00;99.90
43015;DHT22;28637;50.554;7.032;2022-11-15T20:50:27;12.90;99.90
43015;DHT22;28637;50.554;7.032;2022-11-15T20:55:28;13.00;99.90
43015;DHT22;28637;50.554;7.032;2022-11-15T21:00:28;13.00;99.90
43015;DHT22;28637;50.554;7.032;2022-11-15T21:05:29;12.90;99.90
43015;DHT22;28637;50.554;7.032;2022-11-15T21:10:30;12.90;99.90
43015;DHT22;28637;50.554;7.032;2022-11-15T21:15:49;12.90;99.90
43015;DHT22;28637;50.554;7.032;2022-11-15T21:20:50;12.90;99.90
43015;DHT22;28637;50.554;7.032;2022-11-15T21:25:51;12.90;99.90
43015;DHT22;28637;50.554;7.032;2022-11-15T21:30:57;12.90;99.90
43015;DHT22;28637;50.554;7.032;2022-11-15T21:35:58;12.80;99.90
43015;DHT22;28637;50.554;7.032;2022-11-15T21:41:01;12.80;99.90
43015;DHT22;28637;50.554;7.032;2022-11-15T21:46:04;12.80;99.90
43015;DHT22;28637;50.554;7.032;2022-11-15T21:51:08;12.70;99.90
43015;DHT22;28637;50.554;7.032;2022-11-15T21:56:09;12.80;99.90
43015;DHT22;28637;50.554;7.032;2022-11-15T22:01:11;12.80;99.90
43015;DHT22;28637;50.554;7.032;2022-11-15T22:06:31;12.70;99.90
43015;DHT22;28637;50.554;7.032;2022-11-15T22:11:32;12.60;99.90
43015;DHT22;28637;50.554;7.032;2022-11-15T22:16:33;12.60;99.90
43015;DHT22;28637;50.554;7.032;2022-11-15T22:21:34;12.60;99.90
43015;DHT22;28637;50.554;7.032;2022-11-15T22:26:37;12.60;99.90
43015;DHT22;28637;50.554;7.032;2022-11-15T22:31:38;12.60;99.90
43015;DHT22;28637;50.554;7.032;2022-11-15T22:36:38;12.60;99.90
43015;DHT22;28637;50.554;7.032;2022-11-15T22:41:44;12.60;99.90
43015;DHT22;28637;50.554;7.032;2022-11-15T22:46:45;12.50;99.90
43015;DHT22;28637;50.554;7.032;2022-11-15T22:51:46;12.50;99.90
43015;DHT22;28637;50.554;7.032;2022-11-15T22:56:46;12.40;99.90
43015;DHT22;28637;50.554;7.032;2022-11-15T23:01:47;12.40;99.90
43015;DHT22;28637;50.554;7.032;2022-11-15T23:06:50;12.40;99.90
43015;DHT22;28637;50.554;7.032;2022-11-15T23:11:51;12.40;99.90
43015;DHT22;28637;50.554;7.032;2022-11-15T23:17:10;12.40;99.90
43015;DHT22;28637;50.554;7.032;2022-11-15T23:22:11;12.30;99.90
43015;DHT22;28637;50.554;7.032;2022-11-15T23:27:30;12.30;99.90
43015;DHT22;28637;50.554;7.032;2022-11-15T23:32:31;12.30;99.90
43015;DHT22;28637;50.554;7.032;2022-11-15T23:37:50;12.30;99.90
43015;DHT22;28637;50.554;7.032;2022-11-15T23:42:51;12.20;99.90
43015;DHT22;28637;50.554;7.032;2022-11-15T23:47:52;12.30;99.90
43015;DHT22;28637;50.554;7.032;2022-11-15T23:52:52;12.20;99.90
43015;DHT22;28637;50.554;7.032;2022-11-15T23:57:53;12.20;99.90
